CML4 weather

Morrison Lake Seaplane Base
Gravenhurst, Ontario, Canada

Public forecast

Using degrees Celsius for public forecast. Weather courtesy of forecast.io.

METAR (pilot weather report)

Closest report is Muskoka Airport, 9.2 nm (17.0 km) NE. Retrieved 2019/05/27 06:00 UTC (56 minutes ago):

CYQA 270600Z AUTO 20002KT 9SM CLR 07/07 A3002 RMK SLP170

TAF (pilot weather forecast)

Forecast is more than 6 hours old.

Closest forecast is Muskoka Airport, 9.2 nm (17.0 km) NE. Retrieved 2019/05/26 20:00 UTC (11 hours ago):

TAF CYQA 261938Z 2620/2702 28008KT P6SM FEW030 RMK FCST BASED ON AUTO OBS. NXT FCST WILL BE ISSUED AT 271145Z